Time;durP1;ratioP1;P1;durP2;ratioP2;P2;SDS_P1;SDS_P2;PMS_P1;PMS_P2;Temp;Humidity;BMP_temperature;BMP_pressure;BME280_temperature;BME280_humidity;BME280_pressure;Samples;Min_cycle;Max_cycle;Signal;HPM_P1;HPM_P2
2023/04/08 00:00:01;;;;;;;14.68;7.40;;;;;;;;;;6095996;23;20033;-77
2023/04/08 00:02:26;;;;;;;14.27;6.85;;;;;;;;;;6094618;23;20017;-77
2023/04/08 00:04:52;;;;;;;15.02;8.05;;;;;;;;;;6119833;23;20084;-77
2023/04/08 00:07:17;;;;;;;11.60;6.72;;;;;;;;;;6118629;23;20021;-77
2023/04/08 00:09:42;;;;;;;17.42;7.72;;;;;;;;;;6119989;23;20025;-77
2023/04/08 00:12:08;;;;;;;13.45;6.72;;;;;;;;;;6118178;23;20101;-77
2023/04/08 00:14:34;;;;;;;14.35;7.00;;;;;;;;;;6145490;23;20069;-79
2023/04/08 00:16:59;;;;;;;13.25;6.82;;;;;;;;;;6119735;23;20343;-77
2023/04/08 00:19:25;;;;;;;13.82;6.88;;;;;;;;;;6094661;23;20017;-76
2023/04/08 00:21:50;;;;;;;14.05;6.63;;;;;;;;;;6119166;23;20022;-77
2023/04/08 00:24:16;;;;;;;12.70;6.65;;;;;;;;;;6144656;23;20033;-77
2023/04/08 00:26:41;;;;;;;13.82;7.50;;;;;;;;;;6094434;23;20395;-76
2023/04/08 00:29:06;;;;;;;12.43;6.30;;;;;;;;;;6119535;23;20500;-77
2023/04/08 00:31:32;;;;;;;14.10;7.75;;;;;;;;;;6094316;23;20411;-76
2023/04/08 00:33:57;;;;;;;18.20;8.32;;;;;;;;;;6145083;23;20025;-77
2023/04/08 00:36:23;;;;;;;15.60;7.57;;;;;;;;;;6093173;23;20014;-78
2023/04/08 00:38:48;;;;;;;16.23;7.93;;;;;;;;;;6144337;23;20124;-77
2023/04/08 00:41:13;;;;;;;15.38;8.82;;;;;;;;;;6144417;23;20428;-77
2023/04/08 00:43:39;;;;;;;16.65;8.73;;;;;;;;;;6085191;23;20093;-78
2023/04/08 00:46:04;;;;;;;17.45;8.00;;;;;;;;;;6088799;23;20033;-77
2023/04/08 00:48:30;;;;;;;18.55;9.15;;;;;;;;;;6090785;23;20495;-77
2023/04/08 00:50:56;;;;;;;16.85;8.77;;;;;;;;;;6088547;23;20105;-77
2023/04/08 00:53:22;;;;;;;18.58;9.00;;;;;;;;;;6115900;23;20013;-77
2023/04/08 00:55:47;;;;;;;18.55;9.40;;;;;;;;;;6064908;23;20113;-77
2023/04/08 00:58:13;;;;;;;20.83;9.55;;;;;;;;;;6089989;23;20022;-77
2023/04/08 01:00:44;;;;;;;21.08;10.27;;;;;;;;;;6089180;23;20444;-77
2023/04/08 01:03:19;;;;;;;20.17;10.00;;;;;;;;;;6089064;23;20030;-77
2023/04/08 01:05:52;;;;;;;21.95;10.05;;;;;;;;;;6089745;23;20020;-77
2023/04/08 01:08:18;;;;;;;24.50;10.48;;;;;;;;;;6114990;23;20353;-76
2023/04/08 01:10:47;;;;;;;25.27;10.98;;;;;;;;;;6089422;23;20017;-77
2023/04/08 01:13:16;;;;;;;24.95;10.27;;;;;;;;;;6065092;23;20018;-77
2023/04/08 01:15:43;;;;;;;23.00;11.05;;;;;;;;;;6089370;23;20478;-77
2023/04/08 01:18:11;;;;;;;25.40;11.13;;;;;;;;;;6089396;23;20010;-76
2023/04/08 01:20:38;;;;;;;27.58;10.73;;;;;;;;;;6089056;23;20044;-76
2023/04/08 01:23:26;;;;;;;23.48;11.15;;;;;;;;;;6065784;23;20080;-79
2023/04/08 01:25:52;;;;;;;27.27;10.25;;;;;;;;;;6115000;23;20017;-76
2023/04/08 01:28:19;;;;;;;25.63;10.98;;;;;;;;;;6115747;23;20013;-77
2023/04/08 01:30:46;;;;;;;25.67;11.00;;;;;;;;;;6088913;23;20448;-76
2023/04/08 01:33:13;;;;;;;25.60;10.90;;;;;;;;;;6090065;23;20045;-76
2023/04/08 01:35:38;;;;;;;29.13;12.10;;;;;;;;;;6088270;23;20038;-76
2023/04/08 01:38:06;;;;;;;25.30;12.07;;;;;;;;;;6064527;23;20691;-77
2023/04/08 01:40:32;;;;;;;29.15;12.35;;;;;;;;;;6089916;23;20420;-77
2023/04/08 01:42:59;;;;;;;29.37;11.60;;;;;;;;;;6090033;23;20348;-77
2023/04/08 01:45:25;;;;;;;28.73;12.07;;;;;;;;;;6144366;23;20339;-77
2023/04/08 01:47:51;;;;;;;27.10;11.30;;;;;;;;;;6093803;23;20101;-76
2023/04/08 01:50:17;;;;;;;29.63;11.57;;;;;;;;;;6093499;23;20068;-77
2023/04/08 01:52:44;;;;;;;32.83;13.85;;;;;;;;;;6118637;23;20013;-77
2023/04/08 01:55:10;;;;;;;28.80;11.88;;;;;;;;;;6117560;23;20454;-77
2023/04/08 01:57:36;;;;;;;36.85;13.20;;;;;;;;;;6118128;23;20044;-77
2023/04/08 02:00:07;;;;;;;29.48;13.20;;;;;;;;;;6146075;23;20467;-77
2023/04/08 02:02:35;;;;;;;30.85;12.57;;;;;;;;;;6113520;23;20017;-76
2023/04/08 02:05:00;;;;;;;31.27;12.68;;;;;;;;;;6119703;23;20425;-76
2023/04/08 02:07:26;;;;;;;28.63;12.70;;;;;;;;;;6092735;23;20105;-76
2023/04/08 02:09:51;;;;;;;30.85;12.07;;;;;;;;;;6144771;23;20020;-77
2023/04/08 02:12:17;;;;;;;32.67;13.02;;;;;;;;;;6117370;23;20101;-77
2023/04/08 02:14:42;;;;;;;26.48;12.13;;;;;;;;;;6094483;23;20024;-77
2023/04/08 02:17:10;;;;;;;27.75;12.50;;;;;;;;;;6093624;23;20352;-77
2023/04/08 02:19:40;;;;;;;;;;;;;;;;;;6118865;23;20025;-77
2023/04/08 02:22:11;;;;;;;31.63;11.90;;;;;;;;;;6144062;23;19963;-77
2023/04/08 02:24:37;;;;;;;34.80;12.38;;;;;;;;;;6144802;23;20363;-77
2023/04/08 02:27:04;;;;;;;35.25;13.43;;;;;;;;;;6119214;23;20021;-77
2023/04/08 02:29:31;;;;;;;29.52;13.05;;;;;;;;;;6119080;23;20017;-77
2023/04/08 02:31:57;;;;;;;33.03;13.13;;;;;;;;;;6093528;23;20044;-76
2023/04/08 02:34:24;;;;;;;28.77;12.97;;;;;;;;;;6118424;23;20025;-77
2023/04/08 02:36:50;;;;;;;31.15;12.77;;;;;;;;;;6118137;23;20036;-77
2023/04/08 02:39:16;;;;;;;35.25;13.52;;;;;;;;;;6144553;23;20412;-76
2023/04/08 02:41:41;;;;;;;33.47;12.45;;;;;;;;;;6118383;23;20014;-77
2023/04/08 02:44:06;;;;;;;33.78;13.85;;;;;;;;;;6093872;23;20034;-76
2023/04/08 02:46:32;;;;;;;35.75;13.27;;;;;;;;;;6118922;23;20021;-76
2023/04/08 02:48:57;;;;;;;33.83;13.15;;;;;;;;;;6094120;23;20018;-76
2023/04/08 02:51:23;;;;;;;35.10;12.85;;;;;;;;;;6117646;23;20089;-77
2023/04/08 02:53:48;;;;;;;35.35;12.73;;;;;;;;;;6118620;23;20414;-77
2023/04/08 02:56:13;;;;;;;33.63;13.25;;;;;;;;;;6117487;23;20017;-77
2023/04/08 02:58:39;;;;;;;32.83;12.70;;;;;;;;;;6146118;23;20017;-77
2023/04/08 03:01:04;;;;;;;31.15;12.32;;;;;;;;;;6146060;23;20412;-77
2023/04/08 03:03:30;;;;;;;30.55;12.93;;;;;;;;;;6146426;23;20014;-77
2023/04/08 03:05:56;;;;;;;31.40;12.32;;;;;;;;;;6119869;23;20021;-77
2023/04/08 03:08:22;;;;;;;33.10;12.80;;;;;;;;;;6120281;23;20025;-76
2023/04/08 03:10:48;;;;;;;35.83;13.20;;;;;;;;;;6119950;23;20077;-76
2023/04/08 03:13:14;;;;;;;29.30;13.23;;;;;;;;;;6095739;23;20029;-77
2023/04/08 03:15:39;;;;;;;36.25;12.88;;;;;;;;;;6145244;23;20026;-76
2023/04/08 03:18:05;;;;;;;32.72;12.93;;;;;;;;;;6146302;23;20335;-77
2023/04/08 03:20:30;;;;;;;27.65;11.52;;;;;;;;;;6119744;23;20017;-77
2023/04/08 03:22:55;;;;;;;32.13;12.10;;;;;;;;;;6120335;23;20028;-77
2023/04/08 03:25:21;;;;;;;31.88;12.50;;;;;;;;;;6118826;23;20014;-76
2023/04/08 03:27:46;;;;;;;31.52;13.18;;;;;;;;;;6120286;23;20048;-77
2023/04/08 03:30:11;;;;;;;33.63;11.70;;;;;;;;;;6145778;23;20355;-76
2023/04/08 03:32:37;;;;;;;32.33;12.90;;;;;;;;;;6145596;23;20028;-77
2023/04/08 03:35:03;;;;;;;34.95;13.00;;;;;;;;;;6119737;23;20018;-76
2023/04/08 03:37:29;;;;;;;34.13;13.30;;;;;;;;;;6094857;23;20089;-76
2023/04/08 03:39:54;;;;;;;33.97;13.07;;;;;;;;;;6146071;23;20014;-76
2023/04/08 03:42:20;;;;;;;28.77;12.57;;;;;;;;;;6119900;23;20078;-77
2023/04/08 03:44:45;;;;;;;32.80;13.23;;;;;;;;;;6120023;23;20025;-77
2023/04/08 03:47:11;;;;;;;35.40;13.45;;;;;;;;;;6144902;23;20025;-76
2023/04/08 03:49:36;;;;;;;32.28;12.98;;;;;;;;;;6119850;23;20096;-76
2023/04/08 03:52:01;;;;;;;34.55;13.68;;;;;;;;;;6120008;23;20017;-76
2023/04/08 03:54:27;;;;;;;33.95;13.85;;;;;;;;;;6119210;23;20017;-76
2023/04/08 03:56:52;;;;;;;35.20;13.57;;;;;;;;;;6094635;23;20507;-76
2023/04/08 03:59:17;;;;;;;38.38;14.25;;;;;;;;;;6119819;23;20018;-76
2023/04/08 04:01:43;;;;;;;38.55;14.73;;;;;;;;;;6145665;23;20009;-77
2023/04/08 04:04:08;;;;;;;36.00;14.35;;;;;;;;;;6119932;23;20037;-76
2023/04/08 04:06:34;;;;;;;33.83;13.15;;;;;;;;;;6118145;23;20018;-79
2023/04/08 04:08:59;;;;;;;38.42;13.40;;;;;;;;;;6119865;23;20026;-76
2023/04/08 04:11:25;;;;;;;38.42;14.52;;;;;;;;;;6144492;23;20013;-76
2023/04/08 04:13:50;;;;;;;33.03;13.27;;;;;;;;;;6119047;23;20037;-77
2023/04/08 04:16:16;;;;;;;33.22;13.75;;;;;;;;;;6118905;23;20064;-77
2023/04/08 04:18:41;;;;;;;36.95;14.57;;;;;;;;;;6094866;23;20017;-77
2023/04/08 04:21:07;;;;;;;40.88;14.68;;;;;;;;;;6118507;23;20013;-78
2023/04/08 04:23:32;;;;;;;42.10;15.00;;;;;;;;;;6120480;23;20013;-78
2023/04/08 04:25:58;;;;;;;35.58;13.88;;;;;;;;;;6144471;23;20024;-77
2023/04/08 04:28:23;;;;;;;38.63;14.10;;;;;;;;;;6094668;23;20024;-77
2023/04/08 04:30:49;;;;;;;31.20;13.18;;;;;;;;;;6144802;23;20010;-77
2023/04/08 04:33:14;;;;;;;39.88;14.80;;;;;;;;;;6144943;23;20029;-78
2023/04/08 04:35:40;;;;;;;38.92;14.35;;;;;;;;;;6119058;23;20116;-77
2023/04/08 04:38:11;;;;;;;36.15;14.20;;;;;;;;;;6145436;23;20036;-77
2023/04/08 04:40:38;;;;;;;38.30;14.68;;;;;;;;;;6119613;23;20104;-77
2023/04/08 04:43:03;;;;;;;34.35;12.73;;;;;;;;;;6119995;23;20072;-77
2023/04/08 04:45:29;;;;;;;37.50;14.45;;;;;;;;;;6117981;23;20396;-77
2023/04/08 04:47:54;;;;;;;33.53;13.75;;;;;;;;;;6095621;23;20104;-78
2023/04/08 04:50:20;;;;;;;37.20;14.75;;;;;;;;;;6143885;23;20017;-77
2023/04/08 04:52:45;;;;;;;36.60;16.10;;;;;;;;;;6119978;23;20021;-78
2023/04/08 04:55:11;;;;;;;34.20;14.25;;;;;;;;;;6118296;23;20026;-77
2023/04/08 04:57:36;;;;;;;41.30;15.70;;;;;;;;;;6145939;23;20498;-77
2023/04/08 05:00:02;;;;;;;34.65;14.48;;;;;;;;;;6095366;23;20036;-77
2023/04/08 05:02:28;;;;;;;34.10;14.32;;;;;;;;;;6144371;23;20734;-77
2023/04/08 05:04:54;;;;;;;38.70;14.57;;;;;;;;;;6119473;23;20013;-77
2023/04/08 05:07:20;;;;;;;34.10;15.55;;;;;;;;;;6144714;23;20089;-78
2023/04/08 05:09:46;;;;;;;32.92;14.18;;;;;;;;;;6119058;23;20021;-76
2023/04/08 05:12:11;;;;;;;40.60;15.43;;;;;;;;;;6144921;23;20456;-78
2023/04/08 05:14:36;;;;;;;33.05;14.00;;;;;;;;;;6094266;23;20020;-77
2023/04/08 05:17:02;;;;;;;37.63;14.73;;;;;;;;;;6094504;23;20018;-78
2023/04/08 05:19:27;;;;;;;34.80;14.73;;;;;;;;;;6144883;23;20101;-77
2023/04/08 05:21:53;;;;;;;36.33;15.02;;;;;;;;;;6117940;23;20013;-77
2023/04/08 05:24:18;;;;;;;32.85;14.15;;;;;;;;;;6145582;23;20025;-77
2023/04/08 05:26:43;;;;;;;37.53;14.23;;;;;;;;;;6093406;23;20741;-77
2023/04/08 05:29:09;;;;;;;37.75;14.77;;;;;;;;;;6119255;23;20014;-77
2023/04/08 05:31:34;;;;;;;37.40;14.70;;;;;;;;;;6118367;23;20017;-78
2023/04/08 05:34:00;;;;;;;33.90;14.32;;;;;;;;;;6168541;23;20058;-77
2023/04/08 05:36:26;;;;;;;37.63;14.90;;;;;;;;;;6143884;23;20021;-77
2023/04/08 05:38:51;;;;;;;38.53;14.95;;;;;;;;;;6144694;23;20021;-77
2023/04/08 05:41:16;;;;;;;36.15;14.52;;;;;;;;;;6144389;23;20059;-77
2023/04/08 05:43:42;;;;;;;40.15;15.57;;;;;;;;;;6118982;23;20493;-77
2023/04/08 05:46:08;;;;;;;38.67;15.55;;;;;;;;;;6117555;23;20100;-77
2023/04/08 05:48:34;;;;;;;36.22;14.48;;;;;;;;;;6119420;23;20018;-78
2023/04/08 05:51:00;;;;;;;35.47;15.18;;;;;;;;;;6093197;23;20017;-77
2023/04/08 05:53:25;;;;;;;36.50;13.88;;;;;;;;;;6119022;23;20079;-77
2023/04/08 05:55:51;;;;;;;35.50;14.95;;;;;;;;;;6117078;23;20060;-76
2023/04/08 05:58:16;;;;;;;37.17;14.05;;;;;;;;;;6118320;23;20025;-76
2023/04/08 06:00:42;;;;;;;37.90;14.82;;;;;;;;;;6117955;23;20020;-77
2023/04/08 06:03:07;;;;;;;36.65;13.90;;;;;;;;;;6144580;23;20018;-77
2023/04/08 06:05:33;;;;;;;35.22;14.43;;;;;;;;;;6143542;23;20353;-76
2023/04/08 06:07:58;;;;;;;37.17;14.95;;;;;;;;;;6143822;23;20014;-76
2023/04/08 06:10:23;;;;;;;33.80;14.98;;;;;;;;;;6092660;23;20075;-78
2023/04/08 06:12:49;;;;;;;35.63;14.98;;;;;;;;;;6145008;23;20025;-78
2023/04/08 06:15:15;;;;;;;36.63;14.80;;;;;;;;;;6143617;23;20078;-78
2023/04/08 06:17:41;;;;;;;32.45;14.07;;;;;;;;;;6118813;23;20068;-81
2023/04/08 06:20:08;;;;;;;33.70;14.70;;;;;;;;;;6094156;23;20022;-79
2023/04/08 06:22:35;;;;;;;35.60;14.32;;;;;;;;;;6119254;23;20036;-80
2023/04/08 06:25:00;;;;;;;36.38;15.20;;;;;;;;;;6144710;23;20021;-79
2023/04/08 06:27:26;;;;;;;33.03;14.40;;;;;;;;;;6117968;23;20022;-78
2023/04/08 06:29:52;;;;;;;34.03;15.07;;;;;;;;;;6144427;23;20013;-78
2023/04/08 06:32:18;;;;;;;35.72;15.23;;;;;;;;;;6145158;23;20327;-79
2023/04/08 06:34:46;;;;;;;35.20;14.30;;;;;;;;;;6145481;23;20096;-79
2023/04/08 06:37:12;;;;;;;34.55;14.07;;;;;;;;;;6120055;23;20495;-79
2023/04/08 06:39:37;;;;;;;34.30;14.93;;;;;;;;;;6120077;23;20040;-79
2023/04/08 06:42:02;;;;;;;37.88;15.80;;;;;;;;;;6121193;23;20021;-78
2023/04/08 06:44:28;;;;;;;36.83;15.50;;;;;;;;;;6120153;23;20025;-78
2023/04/08 06:46:53;;;;;;;35.67;15.65;;;;;;;;;;6095016;23;20116;-78
2023/04/08 06:49:19;;;;;;;34.33;13.73;;;;;;;;;;6120740;23;20037;-77
2023/04/08 06:51:44;;;;;;;33.90;14.30;;;;;;;;;;6094918;23;20267;-78
2023/04/08 06:54:10;;;;;;;30.92;13.93;;;;;;;;;;6095761;23;20021;-78
2023/04/08 06:56:36;;;;;;;33.78;15.32;;;;;;;;;;6119299;23;20292;-79
2023/04/08 06:59:02;;;;;;;36.83;14.63;;;;;;;;;;6147281;23;20447;-78
2023/04/08 07:01:27;;;;;;;34.00;13.93;;;;;;;;;;6094657;23;20059;-78
2023/04/08 07:03:53;;;;;;;36.30;15.18;;;;;;;;;;6147229;23;20045;-78
2023/04/08 07:06:18;;;;;;;34.90;15.05;;;;;;;;;;6094012;23;20768;-78
2023/04/08 07:08:44;;;;;;;30.13;13.48;;;;;;;;;;6121157;23;20013;-78
2023/04/08 07:11:10;;;;;;;32.05;13.75;;;;;;;;;;6094294;23;20116;-78
2023/04/08 07:13:35;;;;;;;36.17;14.50;;;;;;;;;;6146444;23;20018;-77
2023/04/08 07:16:01;;;;;;;32.88;13.68;;;;;;;;;;6119175;23;20084;-79
2023/04/08 07:18:26;;;;;;;30.83;14.90;;;;;;;;;;6146341;23;20041;-78
2023/04/08 07:20:52;;;;;;;33.85;14.52;;;;;;;;;;6145223;23;20042;-78
2023/04/08 07:23:18;;;;;;;34.22;14.95;;;;;;;;;;6146212;23;20407;-78
2023/04/08 07:25:44;;;;;;;34.03;14.25;;;;;;;;;;6119417;23;20021;-78
2023/04/08 07:28:10;;;;;;;32.28;14.45;;;;;;;;;;6095696;23;20514;-78
2023/04/08 07:30:35;;;;;;;32.00;15.13;;;;;;;;;;6119213;23;20022;-79
2023/04/08 07:33:01;;;;;;;23.20;10.93;;;;;;;;;;6146426;23;20017;-78
2023/04/08 07:35:27;;;;;;;29.38;12.43;;;;;;;;;;6144964;23;20099;-79
2023/04/08 07:37:53;;;;;;;27.93;12.87;;;;;;;;;;6145255;23;20025;-80
2023/04/08 07:40:19;;;;;;;31.42;13.88;;;;;;;;;;6145229;23;20025;-79
2023/04/08 07:42:45;;;;;;;31.98;14.20;;;;;;;;;;6119404;23;20021;-79
2023/04/08 07:45:10;;;;;;;31.98;14.70;;;;;;;;;;6144959;23;20026;-80
2023/04/08 07:47:36;;;;;;;30.17;14.55;;;;;;;;;;6146244;23;20080;-79
2023/04/08 07:50:02;;;;;;;32.25;14.52;;;;;;;;;;6146610;23;20483;-79
2023/04/08 07:52:29;;;;;;;30.95;13.88;;;;;;;;;;6146098;23;20018;-80
2023/04/08 07:54:55;;;;;;;30.27;14.20;;;;;;;;;;6120261;23;20017;-79
2023/04/08 07:57:20;;;;;;;33.17;14.98;;;;;;;;;;6145712;23;20299;-80
2023/04/08 07:59:45;;;;;;;31.17;14.13;;;;;;;;;;6146575;23;20470;-80
2023/04/08 08:02:11;;;;;;;28.95;13.80;;;;;;;;;;6119093;23;20467;-79
2023/04/08 08:04:36;;;;;;;32.67;14.38;;;;;;;;;;6145608;23;20025;-80
2023/04/08 08:07:02;;;;;;;28.20;12.90;;;;;;;;;;6120007;23;20014;-79
2023/04/08 08:09:27;;;;;;;31.35;13.90;;;;;;;;;;6119281;23;20005;-80
2023/04/08 08:11:52;;;;;;;33.10;14.10;;;;;;;;;;6094606;23;20525;-80
2023/04/08 08:14:18;;;;;;;26.25;13.02;;;;;;;;;;6145504;23;20013;-79
2023/04/08 08:16:43;;;;;;;32.95;13.90;;;;;;;;;;6145140;23;20412;-79
2023/04/08 08:19:09;;;;;;;30.15;14.05;;;;;;;;;;6146236;23;20022;-79
2023/04/08 08:21:38;;;;;;;34.42;14.43;;;;;;;;;;6145147;23;20021;-80
2023/04/08 08:24:03;;;;;;;30.27;13.98;;;;;;;;;;6096061;23;20017;-81
2023/04/08 08:26:29;;;;;;;29.75;12.98;;;;;;;;;;6118490;23;20475;-80
2023/04/08 08:28:54;;;;;;;33.35;14.40;;;;;;;;;;6119549;23;20018;-81
2023/04/08 08:31:20;;;;;;;30.50;14.13;;;;;;;;;;6144459;23;20045;-80
2023/04/08 08:33:46;;;;;;;29.10;13.18;;;;;;;;;;6144770;23;20102;-82
2023/04/08 08:36:12;;;;;;;24.58;12.93;;;;;;;;;;6144798;23;20024;-81
2023/04/08 08:38:37;;;;;;;27.60;13.43;;;;;;;;;;6145864;23;20097;-83
2023/04/08 08:41:03;;;;;;;25.90;12.38;;;;;;;;;;6119490;23;20428;-82
2023/04/08 08:43:32;;;;;;;25.85;12.90;;;;;;;;;;6119292;23;20021;-82
2023/04/08 08:45:58;;;;;;;27.88;13.13;;;;;;;;;;6144430;23;20020;-81
2023/04/08 08:48:23;;;;;;;25.80;12.68;;;;;;;;;;6119680;23;20526;-80
2023/04/08 08:50:49;;;;;;;33.25;16.13;;;;;;;;;;6093945;23;20021;-80
2023/04/08 08:53:15;;;;;;;28.90;13.43;;;;;;;;;;6118549;23;20025;-79
2023/04/08 08:55:40;;;;;;;27.25;12.30;;;;;;;;;;6118399;23;20399;-80
2023/04/08 08:58:09;;;;;;;28.95;13.30;;;;;;;;;;6118646;23;20327;-80
2023/04/08 09:00:36;;;;;;;28.55;13.10;;;;;;;;;;6144984;23;20450;-80
2023/04/08 09:03:15;;;;;;;28.73;13.23;;;;;;;;;;6146201;23;20080;-80
2023/04/08 09:05:53;;;;;;;28.58;13.57;;;;;;;;;;6145413;23;20245;-79
2023/04/08 09:08:29;;;;;;;26.58;12.60;;;;;;;;;;6145442;23;20025;-79
2023/04/08 09:11:10;;;;;;;26.55;12.80;;;;;;;;;;6117822;23;20491;-79
2023/04/08 09:13:36;;;;;;;24.33;12.95;;;;;;;;;;6120062;23;20036;-79
2023/04/08 09:16:03;;;;;;;25.83;12.20;;;;;;;;;;6167457;23;20510;-78
2023/04/08 09:18:29;;;;;;;26.20;12.60;;;;;;;;;;6118830;23;20100;-81
2023/04/08 09:20:55;;;;;;;24.27;12.40;;;;;;;;;;6144834;23;20052;-81
2023/04/08 09:23:20;;;;;;;25.65;12.48;;;;;;;;;;6119341;23;20044;-81
2023/04/08 09:25:46;;;;;;;28.35;13.15;;;;;;;;;;6117483;23;20014;-80
2023/04/08 09:28:20;;;;;;;26.92;12.73;;;;;;;;;;6118773;23;20068;-78
2023/04/08 09:30:45;;;;;;;26.02;12.25;;;;;;;;;;6117895;23;20047;-77
2023/04/08 09:33:11;;;;;;;27.85;13.13;;;;;;;;;;6092269;23;20061;-78
2023/04/08 09:35:36;;;;;;;25.90;12.98;;;;;;;;;;6117525;23;20084;-81
2023/04/08 09:38:02;;;;;;;28.15;13.05;;;;;;;;;;6094856;23;20052;-76
2023/04/08 09:40:28;;;;;;;29.75;12.80;;;;;;;;;;6143922;23;20090;-77
2023/04/08 09:42:55;;;;;;;22.58;11.60;;;;;;;;;;6144530;23;20104;-77
2023/04/08 09:45:20;;;;;;;28.02;13.07;;;;;;;;;;6118105;23;20023;-77
2023/04/08 09:47:56;;;;;;;24.40;12.25;;;;;;;;;;6118714;23;20515;-77
2023/04/08 09:50:27;;;;;;;23.25;11.55;;;;;;;;;;6143435;23;20021;-77
2023/04/08 09:52:59;;;;;;;22.45;12.15;;;;;;;;;;6094463;23;20041;-76
2023/04/08 09:55:27;;;;;;;38.70;19.52;;;;;;;;;;6092737;23;20029;-77
2023/04/08 09:57:58;;;;;;;24.60;13.15;;;;;;;;;;6119521;23;20065;-77
2023/04/08 10:00:28;;;;;;;24.25;12.35;;;;;;;;;;6117972;23;20028;-77
2023/04/08 10:03:34;;;;;;;24.98;12.82;;;;;;;;;;6119324;23;20025;-77
2023/04/08 10:06:01;;;;;;;27.42;11.57;;;;;;;;;;6024482;23;20025;-77
2023/04/08 10:08:26;;;;;;;22.60;12.20;;;;;;;;;;6001758;23;20402;-76
2023/04/08 10:10:53;;;;;;;24.02;12.20;;;;;;;;;;6024821;23;20023;-77
2023/04/08 10:13:18;;;;;;;21.27;11.75;;;;;;;;;;5978312;23;20029;-77
2023/04/08 10:15:46;;;;;;;23.50;11.63;;;;;;;;;;5977052;23;20098;-77
2023/04/08 10:18:13;;;;;;;;;;;;;;;;;;6002815;23;20023;-78
2023/04/08 10:20:38;;;;;;;20.17;11.20;;;;;;;;;;6001072;23;19909;-77
2023/04/08 10:23:05;;;;;;;23.23;11.57;;;;;;;;;;6026097;23;20422;-77
2023/04/08 10:25:32;;;;;;;23.60;11.95;;;;;;;;;;6001489;23;20110;-80
2023/04/08 10:27:58;;;;;;;19.93;9.67;;;;;;;;;;5978307;23;20452;-80
2023/04/08 10:30:27;;;;;;;18.42;8.60;;;;;;;;;;6001398;23;20497;-79
2023/04/08 10:32:55;;;;;;;13.43;7.78;;;;;;;;;;6025575;23;20713;-80
2023/04/08 10:35:36;;;;;;;16.42;8.68;;;;;;;;;;6024620;23;20030;-80
2023/04/08 10:38:02;;;;;;;16.15;9.05;;;;;;;;;;6093522;23;20021;-79
2023/04/08 10:40:28;;;;;;;14.85;8.48;;;;;;;;;;6093259;23;20017;-80
2023/04/08 10:42:55;;;;;;;16.77;8.93;;;;;;;;;;6118744;23;20304;-79
2023/04/08 10:45:21;;;;;;;17.65;9.68;;;;;;;;;;6116639;23;20486;-80
2023/04/08 10:47:46;;;;;;;18.02;10.18;;;;;;;;;;6118529;23;20018;-79
2023/04/08 10:50:13;;;;;;;19.70;10.55;;;;;;;;;;6117541;23;20037;-80
2023/04/08 10:52:49;;;;;;;20.08;10.25;;;;;;;;;;6118283;23;20514;-80
2023/04/08 10:55:18;;;;;;;20.38;10.68;;;;;;;;;;6117008;23;20372;-80
2023/04/08 10:57:44;;;;;;;18.95;9.95;;;;;;;;;;6093940;23;20044;-80
2023/04/08 11:00:16;;;;;;;19.88;10.80;;;;;;;;;;6144214;23;20021;-80
2023/04/08 11:02:42;;;;;;;20.38;10.40;;;;;;;;;;6085737;23;20016;-79
2023/04/08 11:05:09;;;;;;;19.33;9.88;;;;;;;;;;6143778;23;20021;-81
2023/04/08 11:07:40;;;;;;;17.77;9.63;;;;;;;;;;6118963;23;20056;-82
2023/04/08 11:10:06;;;;;;;22.25;10.30;;;;;;;;;;6118512;23;20018;-82
2023/04/08 11:12:32;;;;;;;18.40;9.68;;;;;;;;;;6093270;23;20014;-82
2023/04/08 11:14:58;;;;;;;17.48;9.27;;;;;;;;;;6144240;23;20040;-82
2023/04/08 11:17:23;;;;;;;17.23;8.85;;;;;;;;;;6117342;23;20523;-81
2023/04/08 11:19:49;;;;;;;18.20;9.75;;;;;;;;;;6146417;23;20017;-81
2023/04/08 11:22:15;;;;;;;17.55;9.65;;;;;;;;;;6145046;23;20463;-81
2023/04/08 11:24:40;;;;;;;19.02;10.77;;;;;;;;;;6120160;23;20069;-81
2023/04/08 11:27:06;;;;;;;17.77;9.63;;;;;;;;;;6119600;23;20026;-81
2023/04/08 11:29:32;;;;;;;17.80;9.57;;;;;;;;;;6096361;23;20033;-82
2023/04/08 11:31:57;;;;;;;19.73;9.85;;;;;;;;;;6145807;23;20025;-82
2023/04/08 11:34:24;;;;;;;20.52;10.63;;;;;;;;;;6119744;23;20022;-82
2023/04/08 11:36:52;;;;;;;20.38;10.05;;;;;;;;;;6119072;23;20032;-82
2023/04/08 11:39:22;;;;;;;16.73;9.50;;;;;;;;;;6120203;23;20088;-84
2023/04/08 11:41:47;;;;;;;20.73;9.35;;;;;;;;;;6145529;23;20452;-82
2023/04/08 11:44:13;;;;;;;16.48;9.23;;;;;;;;;;6095586;23;20029;-82
2023/04/08 11:46:39;;;;;;;18.05;9.60;;;;;;;;;;6094831;23;20093;-82
2023/04/08 11:49:06;;;;;;;15.98;8.45;;;;;;;;;;6121007;23;20406;-82
2023/04/08 11:51:33;;;;;;;17.77;8.93;;;;;;;;;;6118023;23;20337;-82
2023/04/08 11:54:01;;;;;;;21.38;10.13;;;;;;;;;;6119146;23;20013;-82
2023/04/08 11:56:27;;;;;;;16.60;9.20;;;;;;;;;;6144662;23;20021;-82
2023/04/08 11:58:53;;;;;;;19.35;10.10;;;;;;;;;;6144735;23;20027;-82
2023/04/08 12:01:19;;;;;;;20.10;10.15;;;;;;;;;;6118261;23;20347;-82
2023/04/08 12:03:55;;;;;;;18.35;9.63;;;;;;;;;;6118157;23;20028;-82
2023/04/08 12:06:22;;;;;;;19.25;9.85;;;;;;;;;;6117622;23;20021;-82
2023/04/08 12:08:47;;;;;;;17.40;9.68;;;;;;;;;;6118336;23;20014;-82
2023/04/08 12:11:14;;;;;;;17.80;9.85;;;;;;;;;;6117961;23;20723;-82
2023/04/08 12:13:40;;;;;;;14.93;8.90;;;;;;;;;;6095039;23;20064;-82
2023/04/08 12:16:06;;;;;;;14.35;8.65;;;;;;;;;;6118040;23;20530;-82
2023/04/08 12:18:31;;;;;;;14.50;8.40;;;;;;;;;;6145470;23;20037;-82
2023/04/08 12:20:57;;;;;;;15.15;8.88;;;;;;;;;;6118160;23;20085;-82
2023/04/08 12:23:22;;;;;;;14.15;8.60;;;;;;;;;;6118730;23;20080;-82
2023/04/08 12:25:47;;;;;;;13.20;7.65;;;;;;;;;;6143595;23;20010;-83
2023/04/08 12:28:13;;;;;;;13.18;7.35;;;;;;;;;;6144652;23;20401;-82
2023/04/08 12:30:38;;;;;;;13.98;8.05;;;;;;;;;;6116186;23;20514;-84
2023/04/08 12:33:04;;;;;;;12.02;6.80;;;;;;;;;;6145674;23;20371;-84
2023/04/08 12:35:30;;;;;;;10.27;6.43;;;;;;;;;;6116807;23;20021;-84
2023/04/08 12:37:55;;;;;;;9.38;5.50;;;;;;;;;;6118724;23;20028;-84
2023/04/08 12:40:20;;;;;;;9.90;6.05;;;;;;;;;;6117498;23;20022;-84
2023/04/08 12:42:47;;;;;;;11.48;6.88;;;;;;;;;;6118225;23;20046;-84
2023/04/08 12:45:13;;;;;;;10.23;5.93;;;;;;;;;;6143681;23;20113;-83
2023/04/08 12:47:38;;;;;;;8.88;5.10;;;;;;;;;;6118583;23;20030;-84
2023/04/08 12:50:04;;;;;;;7.93;5.05;;;;;;;;;;6118958;23;20033;-84
2023/04/08 12:52:29;;;;;;;9.75;5.80;;;;;;;;;;6117598;23;20021;-84
2023/04/08 12:54:55;;;;;;;10.05;5.03;;;;;;;;;;6117886;23;20021;-82
2023/04/08 12:57:20;;;;;;;8.57;5.15;;;;;;;;;;6092667;23;20454;-82
2023/04/08 12:59:46;;;;;;;8.65;5.03;;;;;;;;;;6118102;23;20530;-82
2023/04/08 13:02:11;;;;;;;8.73;5.32;;;;;;;;;;6093373;23;20100;-81
2023/04/08 13:04:37;;;;;;;9.82;5.43;;;;;;;;;;6092945;23;20056;-82
2023/04/08 13:07:03;;;;;;;7.57;4.60;;;;;;;;;;6117847;23;20010;-82
2023/04/08 13:09:29;;;;;;;10.38;5.80;;;;;;;;;;6118378;23;20014;-82
2023/04/08 13:11:55;;;;;;;9.63;5.85;;;;;;;;;;6117358;23;20514;-82
2023/04/08 13:14:20;;;;;;;10.55;6.32;;;;;;;;;;6143957;23;20028;-81
2023/04/08 13:16:46;;;;;;;10.68;6.78;;;;;;;;;;6093143;23;20037;-82
2023/04/08 13:19:12;;;;;;;11.55;6.38;;;;;;;;;;6117702;23;20108;-81
2023/04/08 13:21:37;;;;;;;12.20;6.90;;;;;;;;;;6142427;23;20013;-82
2023/04/08 13:24:03;;;;;;;12.52;6.60;;;;;;;;;;6144948;23;20495;-82
2023/04/08 13:26:28;;;;;;;11.25;6.60;;;;;;;;;;6143555;23;20335;-83
2023/04/08 13:28:54;;;;;;;11.57;6.80;;;;;;;;;;6145277;23;20021;-81
2023/04/08 13:31:19;;;;;;;8.18;5.68;;;;;;;;;;6117588;23;20024;-81
2023/04/08 13:34:05;;;;;;;10.25;5.85;;;;;;;;;;6118855;23;20518;-82
2023/04/08 13:36:31;;;;;;;10.30;5.53;;;;;;;;;;6052328;23;20101;-82
2023/04/08 13:38:56;;;;;;;8.88;5.28;;;;;;;;;;6029806;23;20090;-83
2023/04/08 13:41:22;;;;;;;8.63;4.53;;;;;;;;;;6052577;23;20361;-82
2023/04/08 13:43:47;;;;;;;9.00;5.30;;;;;;;;;;6053235;23;20057;-82
2023/04/08 13:46:13;;;;;;;8.55;4.95;;;;;;;;;;6028580;23;20027;-83
2023/04/08 13:48:38;;;;;;;7.38;4.65;;;;;;;;;;6029716;23;20544;-82
2023/04/08 13:51:04;;;;;;;8.23;5.03;;;;;;;;;;6029089;23;20046;-83
2023/04/08 13:53:29;;;;;;;9.40;5.25;;;;;;;;;;6054390;23;20019;-83
2023/04/08 13:55:57;;;;;;;8.35;5.20;;;;;;;;;;6052643;23;20440;-83
2023/04/08 13:58:23;;;;;;;7.95;4.93;;;;;;;;;;6053037;23;20028;-82
2023/04/08 14:00:50;;;;;;;9.25;5.47;;;;;;;;;;6029043;23;20152;-83
2023/04/08 14:03:15;;;;;;;7.97;4.40;;;;;;;;;;6053763;23;20030;-82
2023/04/08 14:05:41;;;;;;;8.20;5.50;;;;;;;;;;6053498;23;20251;-82
2023/04/08 14:08:06;;;;;;;9.38;5.60;;;;;;;;;;6030674;23;20022;-83
2023/04/08 14:10:31;;;;;;;9.20;5.32;;;;;;;;;;6052647;23;20019;-82
2023/04/08 14:12:57;;;;;;;9.25;5.55;;;;;;;;;;6075127;23;20438;-82
2023/04/08 14:15:22;;;;;;;11.18;6.10;;;;;;;;;;6117773;23;20036;-83
2023/04/08 14:17:48;;;;;;;10.85;6.07;;;;;;;;;;6119563;23;20444;-83